createdAt,value
2019-04-26T00:00:54.432Z,15.15
2019-04-26T00:03:29.925Z,16.80
2019-04-26T00:06:01.657Z,19.82
2019-04-26T00:08:32.514Z,19.50
2019-04-26T00:11:04.690Z,15.25
2019-04-26T00:13:37.124Z,15.88
2019-04-26T00:16:16.787Z,16.37
2019-04-26T00:18:47.726Z,17.07
2019-04-26T00:21:18.558Z,14.07
2019-04-26T00:23:49.781Z,19.37
2019-04-26T00:26:21.808Z,13.03
2019-04-26T00:28:52.660Z,14.85
2019-04-26T00:31:23.577Z,13.68
2019-04-26T00:34:15.397Z,15.75
2019-04-26T00:36:46.302Z,16.17
2019-04-26T00:39:18.140Z,13.35
2019-04-26T00:41:49.248Z,16.25
2019-04-26T00:44:20.913Z,15.45
2019-04-26T00:46:54.548Z,18.27
2019-04-26T00:49:25.976Z,18.55
2019-04-26T00:51:56.940Z,17.32
2019-04-26T00:54:28.353Z,15.30
2019-04-26T00:56:59.530Z,15.70
2019-04-26T00:59:31.198Z,13.75
2019-04-26T01:02:03.498Z,12.68
2019-04-26T01:04:34.197Z,13.90
2019-04-26T01:07:05.735Z,12.37
2019-04-26T01:09:36.610Z,13.48
2019-04-26T01:12:07.375Z,17.55
2019-04-26T01:14:37.976Z,13.48
2019-04-26T01:17:08.795Z,15.80
2019-04-26T01:19:41.916Z,15.28
2019-04-26T01:22:15.385Z,13.43
2019-04-26T01:24:48.714Z,12.93
2019-04-26T01:27:23.332Z,17.10
2019-04-26T01:29:56.691Z,17.48
2019-04-26T01:32:28.924Z,17.12
2019-04-26T01:34:59.879Z,13.88
2019-04-26T01:37:31.582Z,15.20
2019-04-26T01:40:06.559Z,16.90
2019-04-26T01:42:41.065Z,13.68
2019-04-26T01:45:20.188Z,15.78
2019-04-26T01:48:11.895Z,15.00
2019-04-26T01:50:42.727Z,15.00
2019-04-26T01:53:13.551Z,14.40
2019-04-26T01:55:44.388Z,13.72
2019-04-26T01:58:15.407Z,15.83
2019-04-26T02:00:56.702Z,16.57
2019-04-26T02:03:29.793Z,14.25
2019-04-26T02:06:00.935Z,14.75
2019-04-26T02:08:32.491Z,16.48
2019-04-26T02:11:03.580Z,13.50
2019-04-26T02:13:34.369Z,13.93
2019-04-26T02:16:05.028Z,14.45
2019-04-26T02:18:36.115Z,17.82
2019-04-26T02:21:27.974Z,14.70
2019-04-26T02:24:06.570Z,15.70
2019-04-26T02:26:42.258Z,15.75
2019-04-26T02:29:21.743Z,14.73
2019-04-26T02:31:54.750Z,14.40
2019-04-26T02:34:28.980Z,14.68
2019-04-26T02:37:01.084Z,14.45
2019-04-26T02:39:35.398Z,14.63
2019-04-26T02:42:09.135Z,19.15
2019-04-26T02:44:59.931Z,19.55
2019-04-26T02:47:39.388Z,14.93
2019-04-26T02:50:19.541Z,16.75
2019-04-26T02:52:58.438Z,15.08
2019-04-26T02:55:50.135Z,14.87
2019-04-26T02:58:23.029Z,16.10
2019-04-26T03:00:55.075Z,16.57
2019-04-26T03:03:29.802Z,23.10
2019-04-26T03:06:00.875Z,15.85
2019-04-26T03:08:39.300Z,16.37
2019-04-26T03:11:16.882Z,16.32
2019-04-26T03:13:48.772Z,15.88
2019-04-26T03:16:36.803Z,17.45
2019-04-26T03:19:17.132Z,16.40
2019-04-26T03:22:25.321Z,14.50
2019-04-26T03:25:04.302Z,15.32
2019-04-26T03:27:46.811Z,16.93
2019-04-26T03:30:23.788Z,16.50
2019-04-26T03:33:03.221Z,15.95
2019-04-26T03:35:57.224Z,14.60
2019-04-26T03:38:36.188Z,14.47
2019-04-26T03:41:27.566Z,17.23
2019-04-26T03:44:00.857Z,14.25
2019-04-26T03:46:35.502Z,14.40
2019-04-26T03:49:26.700Z,14.25
2019-04-26T03:52:14.786Z,13.95
2019-04-26T03:54:48.160Z,14.05
2019-04-26T03:57:31.316Z,18.80
2019-04-26T04:00:11.959Z,14.03
2019-04-26T04:05:41.958Z,15.13
2019-04-26T04:08:15.115Z,12.88
2019-04-26T04:10:57.639Z,13.10
2019-04-26T04:13:46.712Z,15.70
2019-04-26T04:16:42.870Z,15.15
2019-04-26T04:19:22.407Z,14.80
2019-04-26T04:22:19.726Z,12.23
2019-04-26T04:24:53.022Z,13.35
2019-04-26T04:27:35.457Z,16.85
2019-04-26T04:30:29.539Z,12.30
2019-04-26T04:33:27.436Z,15.30
2019-04-26T04:36:00.549Z,17.32
2019-04-26T04:38:53.360Z,16.62
2019-04-26T04:41:41.069Z,12.93
2019-04-26T04:44:21.809Z,13.75
2019-04-26T04:47:30.686Z,15.18
2019-04-26T04:50:26.813Z,14.28
2019-04-26T04:53:08.911Z,15.70
2019-04-26T04:56:14.929Z,13.83
2019-04-26T04:58:56.913Z,16.45
2019-04-26T05:01:53.974Z,13.10
2019-04-26T05:04:28.368Z,15.90
2019-04-26T05:07:29.458Z,14.28
2019-04-26T05:10:11.223Z,14.43
2019-04-26T05:12:50.203Z,14.25
2019-04-26T05:15:37.005Z,14.40
2019-04-26T05:18:25.661Z,13.60
2019-04-26T05:20:58.780Z,14.50
2019-04-26T05:23:32.867Z,15.15
2019-04-26T05:26:53.570Z,14.98
2019-04-26T05:29:49.927Z,14.40
2019-04-26T05:35:26.828Z,16.57
2019-04-26T05:38:17.951Z,14.33
2019-04-26T05:41:02.038Z,16.00
2019-04-26T05:43:42.600Z,14.07
2019-04-26T05:46:26.450Z,15.35
2019-04-26T05:49:22.195Z,14.10
2019-04-26T05:52:06.073Z,17.48
2019-04-26T05:54:52.246Z,14.28
2019-04-26T05:57:41.914Z,13.60
2019-04-26T06:00:18.847Z,13.48
2019-04-26T06:03:05.246Z,15.30
2019-04-26T06:06:05.367Z,15.80
2019-04-26T06:09:15.466Z,15.53
2019-04-26T06:11:56.444Z,14.40
2019-04-26T06:15:07.312Z,14.95
2019-04-26T06:17:42.054Z,14.85
2019-04-26T06:20:24.586Z,14.43
2019-04-26T06:23:06.106Z,14.78
2019-04-26T06:25:55.602Z,14.38
2019-04-26T06:28:27.703Z,17.52
2019-04-26T06:31:01.383Z,16.10
2019-04-26T06:33:46.788Z,14.98
2019-04-26T06:36:22.063Z,15.20
2019-04-26T06:42:11.086Z,14.43
2019-04-26T06:45:23.760Z,15.83
2019-04-26T06:48:07.130Z,15.93
2019-04-26T06:50:41.799Z,16.20
2019-04-26T06:53:39.508Z,15.57
2019-04-26T06:56:14.236Z,17.80
2019-04-26T06:59:19.656Z,17.12
2019-04-26T07:01:59.172Z,19.42
2019-04-26T07:04:38.971Z,17.90
2019-04-26T07:07:30.403Z,17.75
2019-04-26T07:10:04.356Z,17.92
2019-04-26T07:12:53.736Z,17.52
2019-04-26T07:15:45.308Z,18.17
2019-04-26T07:18:31.093Z,20.72
2019-04-26T07:23:59.569Z,20.12
2019-04-26T07:26:52.095Z,17.92
2019-04-26T07:29:49.618Z,18.82
2019-04-26T07:32:51.804Z,17.98
2019-04-26T07:35:45.917Z,19.77
2019-04-26T07:38:54.470Z,19.70
2019-04-26T07:41:45.520Z,17.60
2019-04-26T07:44:38.143Z,15.98
2019-04-26T07:47:29.374Z,16.12
2019-04-26T07:50:19.297Z,21.48
2019-04-26T07:53:24.447Z,15.32
2019-04-26T07:56:13.519Z,18.10
2019-04-26T07:58:55.640Z,17.35
2019-04-26T08:01:36.470Z,15.83
2019-04-26T08:04:11.529Z,13.93
2019-04-26T08:06:52.503Z,19.40
2019-04-26T08:09:27.460Z,14.80
2019-04-26T08:12:06.487Z,15.72
2019-04-26T08:14:43.702Z,15.15
2019-04-26T08:17:27.375Z,15.98
2019-04-26T08:20:42.381Z,15.00
2019-04-26T08:23:37.319Z,16.97
2019-04-26T08:25:50.613Z,16.82
2019-04-26T08:28:23.631Z,14.98
2019-04-26T08:30:56.732Z,16.23
2019-04-26T08:33:31.493Z,15.58
2019-04-26T08:36:04.811Z,18.30
2019-04-26T08:38:37.754Z,15.45
2019-04-26T08:41:09.907Z,16.90
2019-04-26T08:43:43.146Z,15.83
2019-04-26T08:46:20.305Z,18.85
2019-04-26T08:48:53.067Z,17.75
2019-04-26T08:51:26.043Z,19.60
2019-04-26T08:53:59.144Z,17.27
2019-04-26T08:56:35.499Z,20.02
2019-04-26T08:59:27.116Z,21.27
2019-04-26T09:02:10.439Z,18.55
2019-04-26T09:04:57.431Z,19.42
2019-04-26T09:07:36.375Z,18.73
2019-04-26T09:10:11.327Z,16.23
2019-04-26T09:12:43.844Z,15.93
2019-04-26T09:15:17.069Z,16.23
2019-04-26T09:17:47.711Z,17.05
2019-04-26T09:20:28.216Z,16.75
2019-04-26T09:22:56.202Z,19.70
2019-04-26T09:25:39.327Z,21.27
2019-04-26T09:28:21.114Z,17.55
2019-04-26T09:30:56.133Z,18.15
2019-04-26T09:33:36.048Z,16.32
2019-04-26T09:36:06.963Z,18.10
2019-04-26T09:38:37.932Z,21.07
2019-04-26T09:41:08.620Z,17.37
2019-04-26T09:43:41.085Z,20.48
2019-04-26T09:46:38.532Z,17.37
2019-04-26T09:49:10.968Z,17.20
2019-04-26T09:51:42.379Z,17.82
2019-04-26T09:54:15.322Z,19.15
2019-04-26T09:56:45.626Z,17.02
2019-04-26T09:59:16.418Z,19.67
2019-04-26T10:01:47.147Z,17.75
2019-04-26T10:04:18.036Z,18.65
2019-04-26T10:06:48.726Z,18.00
2019-04-26T10:09:21.267Z,19.25
2019-04-26T10:11:56.607Z,17.37
2019-04-26T10:14:38.143Z,17.17
2019-04-26T10:17:11.562Z,20.77
2019-04-26T10:19:55.994Z,17.55
2019-04-26T10:22:28.329Z,15.58
2019-04-26T10:25:02.508Z,18.55
2019-04-26T10:30:11.456Z,16.37
2019-04-26T10:32:42.280Z,17.25
2019-04-26T10:35:13.189Z,16.50
2019-04-26T10:37:47.660Z,17.62
2019-04-26T10:40:16.195Z,16.40
2019-04-26T10:42:49.438Z,16.67
2019-04-26T10:45:20.893Z,16.35
2019-04-26T10:47:51.684Z,17.05
2019-04-26T10:50:28.680Z,18.00
2019-04-26T10:53:00.878Z,15.65
2019-04-26T10:55:39.307Z,16.15
2019-04-26T10:58:11.440Z,16.67
2019-04-26T11:00:44.135Z,16.23
2019-04-26T11:03:15.180Z,18.10
2019-04-26T11:05:49.244Z,16.00
2019-04-26T11:08:18.172Z,15.43
2019-04-26T11:11:09.015Z,19.57
2019-04-26T11:13:40.015Z,16.25
2019-04-26T11:16:10.780Z,15.00
2019-04-26T11:18:41.479Z,15.30
2019-04-26T11:21:12.396Z,15.08
2019-04-26T11:24:02.251Z,14.55
2019-04-26T11:26:35.969Z,18.15
2019-04-26T11:29:07.030Z,18.07
2019-04-26T11:31:37.789Z,16.02
2019-04-26T11:34:08.261Z,14.93
2019-04-26T11:36:41.693Z,15.93
2019-04-26T11:39:13.235Z,16.12
2019-04-26T11:42:04.168Z,15.45
2019-04-26T11:44:34.731Z,13.93
2019-04-26T11:47:07.810Z,12.93
2019-04-26T11:49:41.449Z,14.45
2019-04-26T11:52:32.212Z,15.60
2019-04-26T11:55:03.824Z,16.67
2019-04-26T11:57:34.727Z,17.17
2019-04-26T12:00:06.961Z,16.70
2019-04-26T12:02:39.676Z,16.70
2019-04-26T12:05:28.899Z,23.83
2019-04-26T12:08:01.231Z,16.85
2019-04-26T12:10:32.249Z,13.38
2019-04-26T12:13:05.858Z,14.00
2019-04-26T12:15:38.996Z,14.38
2019-04-26T12:18:09.898Z,16.23
2019-04-26T12:20:40.059Z,13.55
2019-04-26T12:23:13.540Z,26.52
2019-04-26T12:25:43.661Z,31.60
2019-04-26T12:28:15.281Z,57.75
2019-04-26T12:30:45.940Z,70.40
2019-04-26T12:36:09.492Z,98.80
2019-04-26T12:38:38.332Z,96.47
2019-04-26T12:41:11.383Z,86.15
2019-04-26T12:43:40.715Z,65.95
2019-04-26T12:46:22.541Z,45.55
2019-04-26T12:48:51.407Z,35.80
2019-04-26T12:51:22.212Z,31.45
2019-04-26T12:53:53.002Z,32.40
2019-04-26T12:56:26.669Z,28.92
2019-04-26T12:58:55.843Z,27.80
2019-04-26T13:01:26.480Z,26.40
2019-04-26T13:04:07.351Z,25.27
2019-04-26T13:06:39.823Z,25.27
2019-04-26T13:09:21.819Z,20.10
2019-04-26T13:11:59.621Z,21.52
2019-04-26T13:17:51.627Z,19.82
2019-04-26T13:20:24.258Z,20.68
2019-04-26T13:22:55.871Z,21.25
2019-04-26T13:25:30.448Z,19.98
2019-04-26T13:27:59.038Z,21.90
2019-04-26T13:30:32.926Z,20.45
2019-04-26T13:33:02.185Z,23.05
2019-04-26T13:35:32.892Z,21.70
2019-04-26T13:38:05.145Z,25.17
2019-04-26T13:40:35.959Z,23.65
2019-04-26T13:43:07.905Z,20.80
2019-04-26T13:45:40.147Z,24.15
2019-04-26T13:48:49.392Z,19.92
2019-04-26T13:51:21.487Z,26.77
2019-04-26T13:53:54.282Z,27.93
2019-04-26T13:56:43.581Z,26.10
2019-04-26T13:59:14.521Z,24.60
2019-04-26T14:01:45.145Z,23.70
2019-04-26T14:04:15.712Z,23.45
2019-04-26T14:06:46.356Z,27.07
2019-04-26T14:09:16.892Z,26.23
2019-04-26T14:11:47.619Z,26.35
2019-04-26T14:14:18.247Z,24.05
2019-04-26T14:16:51.997Z,20.35
2019-04-26T14:19:21.566Z,17.73
2019-04-26T14:21:52.890Z,17.90
2019-04-26T14:24:25.217Z,15.72
2019-04-26T14:26:57.602Z,14.50
2019-04-26T14:29:32.120Z,18.05
2019-04-26T14:32:01.176Z,21.50
2019-04-26T14:34:31.872Z,15.13
2019-04-26T14:37:06.752Z,16.30
2019-04-26T14:39:49.550Z,16.57
2019-04-26T14:42:07.766Z,14.53
2019-04-26T14:44:48.926Z,16.27
2019-04-26T14:47:14.734Z,14.35
2019-04-26T14:49:43.199Z,15.72
2019-04-26T14:52:14.404Z,17.67
2019-04-26T14:54:47.546Z,15.43
2019-04-26T14:57:25.790Z,14.07
2019-04-26T14:59:52.752Z,17.00
2019-04-26T15:02:47.158Z,14.07
2019-04-26T15:05:22.991Z,12.95
2019-04-26T15:07:53.922Z,15.88
2019-04-26T15:10:26.091Z,14.03
2019-04-26T15:13:11.491Z,15.48
2019-04-26T15:15:32.110Z,18.37
2019-04-26T15:18:02.869Z,16.97
2019-04-26T15:20:33.706Z,14.70
2019-04-26T15:23:04.464Z,14.35
2019-04-26T15:25:36.782Z,13.53
2019-04-26T15:28:11.999Z,13.35
2019-04-26T15:30:46.283Z,14.05
2019-04-26T15:33:13.843Z,13.60
2019-04-26T15:35:45.132Z,15.40
2019-04-26T15:38:15.847Z,18.95
2019-04-26T15:41:04.438Z,14.00
2019-04-26T15:46:50.245Z,15.88
2019-04-26T15:49:29.769Z,17.32
2019-04-26T15:52:00.843Z,13.55
2019-04-26T15:54:32.386Z,14.80
2019-04-26T15:57:06.253Z,12.55
2019-04-26T15:59:35.672Z,13.80
2019-04-26T16:02:06.444Z,12.33
2019-04-26T16:04:37.181Z,14.98
2019-04-26T16:07:08.039Z,13.40
2019-04-26T16:09:40.071Z,17.10
2019-04-26T16:12:10.859Z,11.75
2019-04-26T16:14:42.242Z,12.20
2019-04-26T16:17:13.006Z,11.90
2019-04-26T16:19:43.678Z,13.25
2019-04-26T16:22:14.622Z,12.90
2019-04-26T16:24:45.316Z,17.25
2019-04-26T16:27:16.024Z,12.85
2019-04-26T16:30:00.675Z,16.67
2019-04-26T16:32:47.317Z,12.45
2019-04-26T16:35:18.159Z,15.60
2019-04-26T16:37:51.818Z,14.43
2019-04-26T16:40:25.698Z,13.88
2019-04-26T16:42:57.072Z,13.28
2019-04-26T16:45:26.915Z,14.13
2019-04-26T16:47:57.480Z,14.65
2019-04-26T16:50:31.590Z,17.15
2019-04-26T16:53:00.503Z,13.85
2019-04-26T16:55:38.052Z,12.60
2019-04-26T16:58:04.449Z,12.33
2019-04-26T17:00:50.254Z,14.70
2019-04-26T17:03:08.132Z,11.97
2019-04-26T17:05:47.502Z,12.00
2019-04-26T17:08:12.821Z,13.00
2019-04-26T17:10:43.455Z,11.33
2019-04-26T17:13:14.447Z,14.28
2019-04-26T17:15:46.507Z,13.93
2019-04-26T17:18:19.401Z,12.93
2019-04-26T17:20:49.465Z,13.30
2019-04-26T17:23:37.976Z,14.07
2019-04-26T17:26:29.344Z,14.68
2019-04-26T17:29:02.270Z,13.35
2019-04-26T17:31:33.623Z,13.40
2019-04-26T17:34:05.265Z,14.63
2019-04-26T17:36:36.781Z,13.38
2019-04-26T17:39:11.048Z,11.18
2019-04-26T17:41:43.262Z,13.48
2019-04-26T17:44:14.180Z,16.55
2019-04-26T17:46:48.974Z,16.85
2019-04-26T17:49:21.454Z,12.50
2019-04-26T17:51:53.148Z,12.45
2019-04-26T17:54:41.387Z,15.72
2019-04-26T17:56:55.123Z,15.25
2019-04-26T17:59:33.349Z,12.78
2019-04-26T18:02:01.184Z,14.15
2019-04-26T18:04:36.141Z,14.60
2019-04-26T18:07:10.910Z,12.63
2019-04-26T18:09:44.002Z,11.78
2019-04-26T18:12:07.436Z,12.80
2019-04-26T18:14:37.948Z,12.53
2019-04-26T18:17:10.261Z,14.40
2019-04-26T18:19:42.107Z,15.58
2019-04-26T18:22:14.709Z,16.10
2019-04-26T18:24:45.953Z,13.70
2019-04-26T18:27:16.756Z,13.32
2019-04-26T18:29:47.450Z,12.63
2019-04-26T18:32:18.341Z,13.10
2019-04-26T18:34:49.039Z,13.60
2019-04-26T18:37:20.265Z,14.40
2019-04-26T18:39:51.146Z,12.47
2019-04-26T18:42:21.833Z,12.73
2019-04-26T18:44:53.980Z,15.10
2019-04-26T18:47:29.330Z,11.95
2019-04-26T18:50:00.105Z,11.55
2019-04-26T18:52:33.034Z,14.07
2019-04-26T18:55:05.752Z,18.00
2019-04-26T18:57:36.859Z,12.45
2019-04-26T19:00:10.258Z,13.83
2019-04-26T19:02:42.829Z,12.28
2019-04-26T19:05:15.592Z,15.30
2019-04-26T19:07:46.203Z,15.03
2019-04-26T19:10:18.088Z,13.68
2019-04-26T19:12:49.955Z,12.63
2019-04-26T19:15:41.641Z,13.05
2019-04-26T19:18:22.032Z,13.05
2019-04-26T19:21:06.921Z,13.13
2019-04-26T19:23:37.705Z,12.30
2019-04-26T19:26:09.478Z,13.88
2019-04-26T19:28:43.131Z,11.80
2019-04-26T19:31:12.932Z,13.22
2019-04-26T19:33:43.616Z,12.98
2019-04-26T19:36:17.772Z,12.58
2019-04-26T19:38:49.799Z,12.07
2019-04-26T19:41:21.545Z,12.07
2019-04-26T19:43:52.141Z,11.93
2019-04-26T19:46:25.356Z,17.32
2019-04-26T19:49:14.480Z,23.85
2019-04-26T19:52:03.819Z,27.85
2019-04-26T19:54:41.793Z,31.33
2019-04-26T19:57:26.454Z,27.13
2019-04-26T19:59:57.388Z,28.52
2019-04-26T20:02:35.821Z,26.30
2019-04-26T20:05:02.389Z,30.65
2019-04-26T20:07:33.358Z,27.93
2019-04-26T20:10:05.128Z,27.35
2019-04-26T20:12:38.117Z,30.40
2019-04-26T20:15:12.610Z,26.55
2019-04-26T20:17:42.017Z,28.45
2019-04-26T20:20:35.977Z,25.57
2019-04-26T20:23:07.855Z,25.32
2019-04-26T20:25:37.561Z,24.23
2019-04-26T20:28:08.343Z,24.32
2019-04-26T20:30:57.899Z,24.70
2019-04-26T20:33:31.321Z,26.75
2019-04-26T20:36:04.563Z,23.22
2019-04-26T20:38:53.597Z,27.77
2019-04-26T20:41:25.210Z,27.00
2019-04-26T20:44:04.952Z,24.70
2019-04-26T20:46:29.769Z,24.43
2019-04-26T20:49:01.463Z,26.02
2019-04-26T20:51:32.872Z,24.92
2019-04-26T20:54:03.870Z,26.60
2019-04-26T20:56:34.687Z,23.80
2019-04-26T20:59:05.609Z,23.45
2019-04-26T21:04:36.883Z,25.35
2019-04-26T21:06:59.255Z,26.55
2019-04-26T21:09:30.180Z,26.85
2019-04-26T21:12:01.890Z,25.35
2019-04-26T21:14:32.829Z,23.98
2019-04-26T21:17:03.655Z,23.62
2019-04-26T21:19:34.388Z,22.50
2019-04-26T21:22:05.153Z,24.37
2019-04-26T21:24:37.473Z,22.45
2019-04-26T21:27:09.694Z,23.47
2019-04-26T21:29:59.253Z,23.62
2019-04-26T21:32:33.273Z,22.10
2019-04-26T21:35:05.919Z,23.85
2019-04-26T21:37:38.175Z,23.90
2019-04-26T21:40:10.841Z,25.60
2019-04-26T21:42:43.459Z,21.07
2019-04-26T21:45:14.130Z,22.85
2019-04-26T21:47:45.028Z,24.87
2019-04-26T21:50:16.893Z,22.87
2019-04-26T21:52:49.710Z,18.95
2019-04-26T21:55:20.515Z,22.27
2019-04-26T21:57:51.188Z,20.00
2019-04-26T22:00:27.156Z,19.90
2019-04-26T22:02:57.856Z,19.85
2019-04-26T22:05:28.875Z,19.30
2019-04-26T22:07:59.782Z,20.32
2019-04-26T22:10:32.925Z,20.92
2019-04-26T22:13:06.387Z,24.07
2019-04-26T22:15:54.770Z,19.95
2019-04-26T22:18:30.094Z,25.45
2019-04-26T22:21:14.507Z,22.30
2019-04-26T22:23:56.139Z,21.27
2019-04-26T22:26:26.975Z,22.62
2019-04-26T22:29:00.141Z,23.80
2019-04-26T22:31:29.938Z,21.12
2019-04-26T22:34:01.363Z,24.25
2019-04-26T22:36:35.563Z,22.25
2019-04-26T22:39:07.748Z,22.70
2019-04-26T22:42:02.715Z,23.85
2019-04-26T22:44:36.076Z,24.60
2019-04-26T22:47:14.421Z,24.80
2019-04-26T22:49:45.440Z,22.85
2019-04-26T22:52:16.639Z,24.95
2019-04-26T22:54:47.488Z,21.45
2019-04-26T22:57:18.620Z,25.68
2019-04-26T22:59:50.473Z,22.37
2019-04-26T23:02:26.202Z,22.30
2019-04-26T23:04:56.089Z,25.35
2019-04-26T23:07:26.738Z,22.20
2019-04-26T23:09:57.553Z,24.47
2019-04-26T23:12:46.395Z,28.92
2019-04-26T23:15:18.601Z,23.73
2019-04-26T23:18:03.740Z,23.35
2019-04-26T23:20:34.274Z,29.12
2019-04-26T23:23:08.544Z,26.93
2019-04-26T23:25:38.467Z,26.75
2019-04-26T23:28:09.152Z,28.07
2019-04-26T23:30:40.003Z,24.98
2019-04-26T23:33:10.711Z,29.40
2019-04-26T23:35:43.872Z,25.02
2019-04-26T23:38:13.634Z,24.30
2019-04-26T23:40:44.312Z,28.90
2019-04-26T23:43:15.038Z,24.65
2019-04-26T23:45:48.353Z,26.23
2019-04-26T23:48:18.591Z,27.90
2019-04-26T23:50:50.983Z,26.23
2019-04-26T23:53:21.650Z,26.15
2019-04-26T23:55:52.387Z,26.02
2019-04-26T23:58:23.276Z,33.98
